Time;durP1;ratioP1;P1;durP2;ratioP2;P2;SDS_P1;SDS_P2;PMS_P1;PMS_P2;Temp;Humidity;BMP_temperature;BMP_pressure;BME280_temperature;BME280_humidity;BME280_pressure;Samples;Min_cycle;Max_cycle;Signal;HPM_P1;HPM_P2
2022/04/12 00:00:16;;;;;;;5.73;4.93;;;;;;;;;;5013447;28;20589;-79
2022/04/12 00:02:43;;;;;;;8.93;5.37;;;;;;;;;;5003581;28;20239;-80
2022/04/12 00:05:11;;;;;;;5.47;4.97;;;;;;;;;;4998363;28;20247;-79
2022/04/12 00:07:40;;;;;;;8.80;4.70;;;;;;;;;;4998642;28;20256;-80
2022/04/12 00:10:08;;;;;;;8.67;5.20;;;;;;;;;;4998347;28;20316;-80
2022/04/12 00:12:37;;;;;;;6.97;4.97;;;;;;;;;;4995675;28;20216;-80
2022/04/12 00:15:05;;;;;;;5.20;4.70;;;;;;;;;;4994694;28;20243;-80
2022/04/12 00:20:18;;;;;;;6.67;4.77;;;;;;;;;;4994960;28;20238;-80
2022/04/12 00:22:46;;;;;;;5.10;4.57;;;;;;;;;;4995858;28;20258;-80
2022/04/12 00:25:14;;;;;;;6.37;4.50;;;;;;;;;;4995570;28;20247;-80
2022/04/12 00:27:41;;;;;;;6.60;4.67;;;;;;;;;;4996033;28;20573;-80
2022/04/12 00:30:11;;;;;;;6.03;5.10;;;;;;;;;;4995025;28;20242;-79
2022/04/12 00:32:39;;;;;;;7.17;4.50;;;;;;;;;;4996138;28;20599;-80
2022/04/12 00:35:06;;;;;;;6.13;5.33;;;;;;;;;;4994536;28;20232;-79
2022/04/12 00:37:33;;;;;;;6.00;5.40;;;;;;;;;;4995180;28;20222;-79
2022/04/12 00:40:03;;;;;;;15.90;5.27;;;;;;;;;;4995010;28;20262;-80
2022/04/12 00:42:30;;;;;;;6.77;5.13;;;;;;;;;;4995214;28;20614;-79
2022/04/12 00:44:58;;;;;;;7.67;5.40;;;;;;;;;;4994593;28;20243;-79
2022/04/12 00:47:25;;;;;;;5.97;4.90;;;;;;;;;;4994824;28;20211;-79
2022/04/12 00:49:52;;;;;;;5.00;4.50;;;;;;;;;;4994394;28;20204;-79
2022/04/12 00:52:19;;;;;;;5.30;4.80;;;;;;;;;;4994868;28;20207;-80
2022/04/12 00:54:47;;;;;;;7.33;5.43;;;;;;;;;;4993981;28;20240;-79
2022/04/12 00:57:16;;;;;;;7.63;5.30;;;;;;;;;;4997675;28;20203;-80
2022/04/12 00:59:45;;;;;;;5.33;4.83;;;;;;;;;;5004602;28;20231;-79
2022/04/12 01:02:12;;;;;;;9.37;4.67;;;;;;;;;;4997542;28;20207;-80
2022/04/12 01:04:39;;;;;;;5.10;4.60;;;;;;;;;;4993829;28;20234;-79
2022/04/12 01:07:07;;;;;;;10.67;5.33;;;;;;;;;;4998219;28;20208;-80
2022/04/12 01:09:34;;;;;;;5.10;4.60;;;;;;;;;;5002876;28;20235;-79
2022/04/12 01:12:09;;;;;;;4.93;4.43;;;;;;;;;;5013983;28;20235;-80
2022/04/12 01:14:37;;;;;;;9.80;4.83;;;;;;;;;;4998632;28;20231;-80
2022/04/12 01:17:06;;;;;;;5.37;4.77;;;;;;;;;;4994711;28;20204;-79
2022/04/12 01:19:33;;;;;;;7.43;5.10;;;;;;;;;;4993436;28;20235;-80
2022/04/12 01:22:03;;;;;;;6.27;4.90;;;;;;;;;;4994245;28;20239;-80
2022/04/12 01:24:32;;;;;;;6.97;5.40;;;;;;;;;;4994247;28;20289;-80
2022/04/12 01:26:59;;;;;;;5.67;5.17;;;;;;;;;;5014621;28;20260;-79
2022/04/12 01:29:26;;;;;;;9.40;5.50;;;;;;;;;;5016610;28;20203;-79
2022/04/12 01:31:53;;;;;;;9.20;5.07;;;;;;;;;;5015983;28;20241;-79
2022/04/12 01:34:20;;;;;;;6.30;5.43;;;;;;;;;;5015373;28;20238;-79
2022/04/12 01:36:47;;;;;;;5.40;4.90;;;;;;;;;;5014643;28;20265;-79
2022/04/12 01:39:14;;;;;;;5.60;5.10;;;;;;;;;;5015018;28;20223;-80
2022/04/12 01:41:43;;;;;;;6.23;5.00;;;;;;;;;;5013995;28;20245;-79
2022/04/12 01:44:10;;;;;;;5.70;5.20;;;;;;;;;;5015097;28;20227;-79
2022/04/12 01:46:37;;;;;;;8.03;5.63;;;;;;;;;;5014201;28;20235;-79
2022/04/12 01:49:04;;;;;;;6.57;5.60;;;;;;;;;;5014706;28;20224;-79
2022/04/12 01:51:31;;;;;;;6.63;5.73;;;;;;;;;;5013889;28;20235;-79
2022/04/12 01:53:58;;;;;;;7.10;5.67;;;;;;;;;;5015951;28;20231;-79
2022/04/12 01:56:25;;;;;;;6.80;5.57;;;;;;;;;;5013590;28;20240;-79
2022/04/12 01:58:53;;;;;;;6.90;5.60;;;;;;;;;;5012806;28;20211;-79
2022/04/12 02:01:21;;;;;;;6.47;5.60;;;;;;;;;;5010773;28;20249;-79
2022/04/12 02:03:48;;;;;;;9.07;6.30;;;;;;;;;;4993660;28;20239;-80
2022/04/12 02:06:15;;;;;;;8.53;7.00;;;;;;;;;;4993161;28;20719;-79
2022/04/12 02:08:43;;;;;;;10.67;6.10;;;;;;;;;;4993209;28;20223;-79
2022/04/12 02:11:10;;;;;;;7.20;5.63;;;;;;;;;;4993620;28;20236;-79
2022/04/12 02:13:37;;;;;;;7.13;5.23;;;;;;;;;;4994192;28;20231;-79
2022/04/12 02:16:06;;;;;;;8.47;5.20;;;;;;;;;;4994427;28;20246;-79
2022/04/12 02:18:33;;;;;;;8.87;6.23;;;;;;;;;;4994005;28;20223;-79
2022/04/12 02:21:00;;;;;;;6.53;5.83;;;;;;;;;;4993506;28;20722;-79
2022/04/12 02:23:27;;;;;;;7.23;6.00;;;;;;;;;;4994326;28;20228;-80
2022/04/12 02:25:54;;;;;;;7.17;5.60;;;;;;;;;;4993928;28;20241;-79
2022/04/12 02:28:21;;;;;;;7.73;5.70;;;;;;;;;;4994769;28;20979;-79
2022/04/12 02:30:49;;;;;;;8.23;6.17;;;;;;;;;;4994103;28;20247;-79
2022/04/12 02:33:18;;;;;;;7.20;6.40;;;;;;;;;;4994315;28;20211;-80
2022/04/12 02:35:45;;;;;;;7.97;6.10;;;;;;;;;;4993744;28;20250;-79
2022/04/12 02:38:13;;;;;;;6.80;5.80;;;;;;;;;;4993981;28;20218;-80
2022/04/12 02:40:40;;;;;;;7.07;5.87;;;;;;;;;;4992880;28;20283;-79
2022/04/12 02:43:07;;;;;;;7.53;5.83;;;;;;;;;;4994204;28;20249;-79
2022/04/12 02:45:34;;;;;;;6.30;5.70;;;;;;;;;;4993815;28;20246;-79
2022/04/12 02:48:01;;;;;;;7.33;5.90;;;;;;;;;;4995523;28;20213;-79
2022/04/12 02:50:29;;;;;;;7.60;6.07;;;;;;;;;;4994261;28;20242;-79
2022/04/12 02:52:56;;;;;;;7.70;5.90;;;;;;;;;;4993771;28;20651;-79
2022/04/12 02:55:23;;;;;;;9.40;5.90;;;;;;;;;;4995386;28;20250;-79
2022/04/12 02:57:50;;;;;;;9.20;6.80;;;;;;;;;;4995784;28;20230;-79
2022/04/12 03:00:18;;;;;;;8.53;6.30;;;;;;;;;;4994871;28;20615;-79
2022/04/12 03:02:45;;;;;;;6.27;5.63;;;;;;;;;;5008696;28;20564;-79
2022/04/12 03:05:12;;;;;;;7.47;5.67;;;;;;;;;;5014521;28;20238;-79
2022/04/12 03:07:41;;;;;;;8.80;6.47;;;;;;;;;;5015000;28;20671;-79
2022/04/12 03:10:08;;;;;;;7.57;5.90;;;;;;;;;;5014298;28;20239;-79
2022/04/12 03:12:35;;;;;;;7.30;6.07;;;;;;;;;;5014644;28;20211;-79
2022/04/12 03:15:02;;;;;;;9.13;5.87;;;;;;;;;;5014317;28;20733;-79
2022/04/12 03:17:29;;;;;;;6.00;5.40;;;;;;;;;;5014763;28;20209;-79
2022/04/12 03:19:56;;;;;;;7.30;6.20;;;;;;;;;;5014120;28;20242;-79
2022/04/12 03:22:24;;;;;;;7.80;6.30;;;;;;;;;;5015475;28;20208;-79
2022/04/12 03:24:52;;;;;;;7.43;6.20;;;;;;;;;;5014477;28;20235;-79
2022/04/12 03:27:19;;;;;;;7.10;6.30;;;;;;;;;;5014684;28;20272;-79
2022/04/12 03:29:46;;;;;;;13.57;6.50;;;;;;;;;;5014278;28;20205;-79
2022/04/12 03:32:13;;;;;;;6.97;5.63;;;;;;;;;;5014524;28;20219;-79
2022/04/12 03:34:41;;;;;;;10.33;6.77;;;;;;;;;;5013859;28;20257;-79
2022/04/12 03:37:08;;;;;;;8.23;6.23;;;;;;;;;;5014667;28;20664;-79
2022/04/12 03:39:36;;;;;;;9.13;7.27;;;;;;;;;;5017509;28;20221;-79
2022/04/12 03:42:05;;;;;;;8.13;6.67;;;;;;;;;;5014771;28;20210;-79
2022/04/12 03:44:32;;;;;;;8.83;6.63;;;;;;;;;;5013835;28;20238;-79
2022/04/12 03:46:59;;;;;;;9.40;6.83;;;;;;;;;;5014868;28;20277;-79
2022/04/12 03:49:26;;;;;;;6.83;6.00;;;;;;;;;;5014201;28;20711;-79
2022/04/12 03:51:53;;;;;;;7.80;6.13;;;;;;;;;;5021035;28;20242;-80
2022/04/12 03:54:20;;;;;;;10.83;6.97;;;;;;;;;;5025049;28;20237;-79
2022/04/12 03:56:47;;;;;;;9.63;6.50;;;;;;;;;;5024498;28;20248;-79
2022/04/12 03:59:15;;;;;;;6.37;5.73;;;;;;;;;;5018271;28;20216;-79
2022/04/12 04:01:42;;;;;;;8.60;6.30;;;;;;;;;;5009860;28;20260;-79
2022/04/12 04:04:10;;;;;;;10.40;6.17;;;;;;;;;;5028844;28;20228;-79
2022/04/12 04:06:37;;;;;;;7.43;6.33;;;;;;;;;;5014334;28;20720;-79
2022/04/12 04:09:04;;;;;;;7.67;6.47;;;;;;;;;;5023596;28;20208;-79
2022/04/12 04:11:31;;;;;;;11.53;5.90;;;;;;;;;;5011438;28;20237;-79
2022/04/12 04:14:00;;;;;;;9.67;6.77;;;;;;;;;;5004774;28;20244;-79
2022/04/12 04:16:28;;;;;;;7.67;6.50;;;;;;;;;;5026477;28;20228;-80
2022/04/12 04:18:55;;;;;;;10.03;6.23;;;;;;;;;;5030574;28;20206;-80
2022/04/12 04:21:22;;;;;;;6.83;5.60;;;;;;;;;;5013648;28;20244;-80
2022/04/12 04:23:49;;;;;;;7.83;6.10;;;;;;;;;;5002275;28;20228;-79
2022/04/12 04:26:16;;;;;;;7.03;6.30;;;;;;;;;;5013748;28;20236;-80
2022/04/12 04:28:44;;;;;;;8.23;5.97;;;;;;;;;;5027520;28;20203;-80
2022/04/12 04:31:11;;;;;;;7.17;6.00;;;;;;;;;;5024447;28;20292;-82
2022/04/12 04:33:40;;;;;;;9.57;6.97;;;;;;;;;;5029877;28;20285;-80
2022/04/12 04:36:07;;;;;;;11.10;6.67;;;;;;;;;;5036015;28;20283;-80
2022/04/12 04:38:34;;;;;;;9.63;6.63;;;;;;;;;;5028483;28;20213;-80
2022/04/12 04:41:01;;;;;;;6.87;6.17;;;;;;;;;;5023836;28;20670;-80
2022/04/12 04:43:29;;;;;;;6.63;5.40;;;;;;;;;;5032165;28;20230;-80
2022/04/12 04:45:56;;;;;;;10.40;5.80;;;;;;;;;;5022208;28;20244;-80
2022/04/12 04:48:23;;;;;;;13.63;6.37;;;;;;;;;;5020589;28;20204;-80
2022/04/12 04:50:51;;;;;;;7.37;6.37;;;;;;;;;;5021743;28;20239;-80
2022/04/12 04:53:18;;;;;;;7.13;5.57;;;;;;;;;;5020437;28;20703;-80
2022/04/12 04:55:47;;;;;;;8.23;6.00;;;;;;;;;;5023788;28;20243;-80
2022/04/12 04:58:14;;;;;;;8.90;6.33;;;;;;;;;;5022495;28;20300;-80
2022/04/12 05:00:43;;;;;;;8.93;6.47;;;;;;;;;;5019495;28;20239;-80
2022/04/12 05:03:10;;;;;;;8.27;6.27;;;;;;;;;;5017814;28;20697;-81
2022/04/12 05:05:37;;;;;;;7.40;6.03;;;;;;;;;;5029876;28;20237;-81
2022/04/12 05:08:06;;;;;;;12.87;6.60;;;;;;;;;;5037539;28;20220;-81
2022/04/12 05:10:33;;;;;;;9.20;6.73;;;;;;;;;;5039282;28;20708;-83
2022/04/12 05:13:01;;;;;;;10.80;6.80;;;;;;;;;;5039045;28;20719;-80
2022/04/12 05:15:28;;;;;;;12.13;6.67;;;;;;;;;;5039121;28;20240;-81
2022/04/12 05:17:56;;;;;;;7.90;5.70;;;;;;;;;;5028147;28;20209;-81
2022/04/12 05:20:24;;;;;;;8.40;6.90;;;;;;;;;;5017926;28;20237;-81
2022/04/12 05:22:52;;;;;;;10.23;6.60;;;;;;;;;;5018434;28;20308;-81
2022/04/12 05:25:20;;;;;;;10.17;6.30;;;;;;;;;;5017443;28;20243;-81
2022/04/12 05:27:48;;;;;;;7.87;7.00;;;;;;;;;;5018862;28;20558;-81
2022/04/12 05:30:16;;;;;;;7.47;6.67;;;;;;;;;;5017885;28;20684;-81
2022/04/12 05:32:43;;;;;;;7.63;6.37;;;;;;;;;;5018751;28;20211;-81
2022/04/12 05:35:11;;;;;;;7.67;5.63;;;;;;;;;;5017295;28;20245;-80
2022/04/12 05:37:45;;;;;;;7.60;6.60;;;;;;;;;;5018722;28;20222;-82
2022/04/12 05:40:12;;;;;;;7.83;6.43;;;;;;;;;;5018632;28;20240;-81
2022/04/12 05:42:40;;;;;;;8.63;6.33;;;;;;;;;;5017876;28;20513;-81
2022/04/12 05:45:08;;;;;;;11.87;6.80;;;;;;;;;;5017278;28;20246;-81
2022/04/12 05:47:45;;;;;;;8.47;6.63;;;;;;;;;;5012712;28;20218;-81
2022/04/12 05:50:12;;;;;;;7.63;6.27;;;;;;;;;;5021155;28;20239;-81
2022/04/12 05:52:40;;;;;;;8.27;6.63;;;;;;;;;;5036910;28;20210;-81
2022/04/12 05:55:08;;;;;;;7.83;6.33;;;;;;;;;;5026603;28;20236;-81
2022/04/12 05:57:36;;;;;;;9.13;6.17;;;;;;;;;;5016577;28;20213;-81
2022/04/12 06:00:06;;;;;;;7.50;6.43;;;;;;;;;;5015690;28;20649;-81
2022/04/12 06:02:33;;;;;;;7.40;6.30;;;;;;;;;;5016115;28;20629;-81
2022/04/12 06:05:00;;;;;;;22.20;7.33;;;;;;;;;;5015868;28;20295;-81
2022/04/12 06:07:31;;;;;;;10.17;6.93;;;;;;;;;;5001737;28;20218;-81
2022/04/12 06:09:58;;;;;;;9.83;7.33;;;;;;;;;;4996180;28;20293;-81
2022/04/12 06:12:25;;;;;;;8.83;7.27;;;;;;;;;;4996065;28;20218;-81
2022/04/12 06:14:52;;;;;;;14.67;7.87;;;;;;;;;;4997853;28;20731;-81
2022/04/12 06:17:20;;;;;;;12.20;8.03;;;;;;;;;;5015649;28;20209;-81
2022/04/12 06:19:47;;;;;;;11.87;8.87;;;;;;;;;;5014847;28;20217;-81
2022/04/12 06:22:14;;;;;;;13.00;8.77;;;;;;;;;;5015753;28;20236;-81
2022/04/12 06:24:42;;;;;;;9.80;7.37;;;;;;;;;;5014745;28;20236;-81
2022/04/12 06:27:09;;;;;;;10.83;8.27;;;;;;;;;;5016554;28;20221;-81
2022/04/12 06:29:36;;;;;;;9.83;7.93;;;;;;;;;;5025653;28;20309;-81
2022/04/12 06:32:04;;;;;;;9.63;7.70;;;;;;;;;;5037365;28;20213;-81
2022/04/12 06:34:32;;;;;;;11.37;8.03;;;;;;;;;;5039749;28;20232;-81
2022/04/12 06:36:59;;;;;;;11.10;7.30;;;;;;;;;;5039867;28;20229;-81
2022/04/12 06:39:26;;;;;;;9.87;8.07;;;;;;;;;;5039168;28;20217;-81
2022/04/12 06:41:53;;;;;;;10.10;7.17;;;;;;;;;;5034393;28;20235;-81
2022/04/12 06:44:20;;;;;;;12.60;7.47;;;;;;;;;;5019966;28;20234;-81
2022/04/12 06:46:47;;;;;;;10.00;8.00;;;;;;;;;;5018900;28;20242;-81
2022/04/12 06:49:14;;;;;;;12.43;7.87;;;;;;;;;;5019284;28;20207;-81
2022/04/12 06:51:43;;;;;;;7.50;6.50;;;;;;;;;;5019025;28;20231;-81
2022/04/12 06:54:10;;;;;;;7.87;7.07;;;;;;;;;;5019089;28;20273;-81
2022/04/12 06:56:37;;;;;;;9.23;6.90;;;;;;;;;;5019344;28;20235;-81
2022/04/12 06:59:04;;;;;;;7.90;6.43;;;;;;;;;;5020206;28;20203;-81
2022/04/12 07:01:31;;;;;;;7.20;6.03;;;;;;;;;;5019905;28;20238;-81
2022/04/12 07:03:58;;;;;;;8.10;6.30;;;;;;;;;;5019291;28;20238;-81
2022/04/12 07:06:25;;;;;;;8.07;6.30;;;;;;;;;;5018628;28;20239;-81
2022/04/12 07:08:53;;;;;;;7.93;6.13;;;;;;;;;;5018897;28;20211;-82
2022/04/12 07:11:21;;;;;;;7.77;5.93;;;;;;;;;;5018540;28;20319;-81
2022/04/12 07:13:48;;;;;;;7.40;5.90;;;;;;;;;;5019648;28;20262;-81
2022/04/12 07:16:15;;;;;;;6.50;5.30;;;;;;;;;;5019544;28;20238;-82
2022/04/12 07:18:42;;;;;;;7.33;5.23;;;;;;;;;;5019914;28;20211;-82
2022/04/12 07:21:09;;;;;;;6.57;5.00;;;;;;;;;;5019079;28;20259;-81
2022/04/12 07:23:37;;;;;;;6.07;5.17;;;;;;;;;;5019548;28;20231;-81
2022/04/12 07:26:05;;;;;;;6.57;5.40;;;;;;;;;;5020066;28;20585;-82
2022/04/12 07:28:32;;;;;;;7.27;4.87;;;;;;;;;;5020551;28;20591;-82
2022/04/12 07:30:59;;;;;;;6.43;4.97;;;;;;;;;;5020137;28;20239;-82
2022/04/12 07:33:26;;;;;;;10.30;5.30;;;;;;;;;;5020650;28;20231;-82
2022/04/12 07:35:53;;;;;;;7.70;5.27;;;;;;;;;;5018735;28;20662;-82
2022/04/12 07:38:20;;;;;;;7.00;5.30;;;;;;;;;;5014533;28;20406;-84
2022/04/12 07:40:47;;;;;;;7.80;5.07;;;;;;;;;;5001662;28;20232;-83
2022/04/12 07:43:16;;;;;;;6.40;4.60;;;;;;;;;;5012465;28;20204;-83
2022/04/12 07:45:43;;;;;;;6.87;4.60;;;;;;;;;;5013620;28;20235;-84
2022/04/12 07:48:10;;;;;;;6.33;4.60;;;;;;;;;;5014056;28;20210;-83
2022/04/12 07:50:37;;;;;;;4.83;4.23;;;;;;;;;;5013453;28;20335;-84
2022/04/12 07:53:04;;;;;;;4.50;3.97;;;;;;;;;;5013722;28;20652;-83
2022/04/12 07:55:31;;;;;;;6.07;4.30;;;;;;;;;;5013120;28;20231;-84
2022/04/12 07:57:58;;;;;;;5.60;4.73;;;;;;;;;;5014771;28;20203;-84
2022/04/12 08:00:26;;;;;;;4.83;3.90;;;;;;;;;;5014921;28;20633;-83
2022/04/12 08:02:53;;;;;;;5.47;3.97;;;;;;;;;;5034531;28;20575;-83
2022/04/12 08:05:20;;;;;;;7.83;4.27;;;;;;;;;;5026109;28;20231;-83
2022/04/12 08:07:48;;;;;;;5.07;3.70;;;;;;;;;;5026463;28;20207;-83
2022/04/12 08:10:16;;;;;;;6.37;4.10;;;;;;;;;;5001764;28;20290;-83
2022/04/12 08:12:43;;;;;;;4.47;3.83;;;;;;;;;;5026044;28;20225;-83
2022/04/12 08:15:11;;;;;;;5.27;3.63;;;;;;;;;;5036263;28;20703;-83
2022/04/12 08:17:40;;;;;;;8.07;3.70;;;;;;;;;;5039289;28;20206;-83
2022/04/12 08:20:08;;;;;;;5.00;3.93;;;;;;;;;;5033623;28;20234;-83
2022/04/12 08:22:35;;;;;;;3.70;3.40;;;;;;;;;;5033110;28;20234;-83
2022/04/12 08:25:03;;;;;;;3.83;3.43;;;;;;;;;;5032706;28;20265;-83
2022/04/12 08:27:30;;;;;;;3.80;3.40;;;;;;;;;;5015827;28;20211;-83
2022/04/12 08:29:57;;;;;;;4.27;3.60;;;;;;;;;;5013143;28;20231;-83
2022/04/12 08:32:24;;;;;;;4.67;3.57;;;;;;;;;;5013360;28;20222;-84
2022/04/12 08:34:54;;;;;;;4.80;3.73;;;;;;;;;;5010888;28;20246;-83
2022/04/12 08:37:21;;;;;;;4.83;3.47;;;;;;;;;;5001315;28;20241;-84
2022/04/12 08:39:48;;;;;;;6.13;3.27;;;;;;;;;;5032417;28;20217;-83
2022/04/12 08:42:15;;;;;;;3.37;3.07;;;;;;;;;;5025015;28;20310;-83
2022/04/12 08:44:45;;;;;;;3.70;2.93;;;;;;;;;;5012574;28;20227;-83
2022/04/12 08:47:15;;;;;;;4.80;3.00;;;;;;;;;;5013486;28;20695;-83
2022/04/12 08:49:42;;;;;;;4.40;3.40;;;;;;;;;;5012492;28;20218;-84
2022/04/12 08:52:11;;;;;;;3.40;3.03;;;;;;;;;;5019132;28;20206;-83
2022/04/12 08:54:38;;;;;;;3.93;3.00;;;;;;;;;;5031861;28;20234;-84
2022/04/12 08:57:05;;;;;;;5.63;3.13;;;;;;;;;;5032881;28;20207;-84
2022/04/12 08:59:32;;;;;;;4.10;3.47;;;;;;;;;;5031838;28;20211;-84
2022/04/12 09:02:00;;;;;;;4.10;3.53;;;;;;;;;;5032617;28;20230;-84
2022/04/12 09:04:27;;;;;;;3.60;2.90;;;;;;;;;;5034535;28;20223;-84
2022/04/12 09:06:55;;;;;;;3.38;2.90;;;;;;;;;;5034597;28;20621;-84
2022/04/12 09:09:24;;;;;;;4.63;3.03;;;;;;;;;;5033679;28;20193;-84
2022/04/12 09:11:58;;;;;;;3.72;2.92;;;;;;;;;;5034175;28;20242;-84
2022/04/12 09:14:25;;;;;;;3.92;2.78;;;;;;;;;;4998316;28;20235;-84
2022/04/12 09:16:53;;;;;;;3.55;2.45;;;;;;;;;;4992664;28;20324;-84
2022/04/12 09:19:35;;;;;;;3.80;2.63;;;;;;;;;;4992906;28;20204;-84
2022/04/12 09:22:02;;;;;;;2.75;2.33;;;;;;;;;;4992558;28;20235;-84
2022/04/12 09:24:30;;;;;;;3.35;2.50;;;;;;;;;;4992579;28;20715;-83
2022/04/12 09:26:58;;;;;;;3.75;2.60;;;;;;;;;;4993074;28;20228;-85
2022/04/12 09:29:29;;;;;;;3.97;2.30;;;;;;;;;;4992499;28;20212;-85
2022/04/12 09:31:59;;;;;;;3.25;2.60;;;;;;;;;;4992581;28;20232;-84
2022/04/12 09:34:27;;;;;;;2.92;2.35;;;;;;;;;;4992330;28;20231;-84
2022/04/12 09:36:55;;;;;;;4.25;2.95;;;;;;;;;;4992388;28;20244;-84
2022/04/12 09:39:22;;;;;;;2.75;2.40;;;;;;;;;;4992237;28;20215;-84
2022/04/12 09:41:51;;;;;;;3.22;2.20;;;;;;;;;;4991950;28;20240;-81
2022/04/12 09:44:18;;;;;;;4.45;2.65;;;;;;;;;;4992139;28;20232;-84
2022/04/12 09:46:45;;;;;;;2.90;2.47;;;;;;;;;;4992110;28;20290;-84
2022/04/12 09:49:12;;;;;;;3.58;2.40;;;;;;;;;;4992488;28;20212;-83
2022/04/12 09:51:39;;;;;;;3.25;2.10;;;;;;;;;;4992149;28;20246;-83
2022/04/12 09:54:07;;;;;;;2.65;2.10;;;;;;;;;;4991672;28;20243;-82
2022/04/12 09:56:35;;;;;;;2.67;2.17;;;;;;;;;;4991829;28;20243;-82
2022/04/12 09:59:06;;;;;;;2.85;2.47;;;;;;;;;;4992192;28;20304;-82
2022/04/12 10:01:39;;;;;;;2.75;2.08;;;;;;;;;;4991732;28;20236;-82
2022/04/12 10:04:08;;;;;;;2.10;2.00;;;;;;;;;;4991778;28;20984;-82
2022/04/12 10:06:39;;;;;;;3.22;2.30;;;;;;;;;;4992098;28;20236;-82
2022/04/12 10:09:07;;;;;;;2.88;1.88;;;;;;;;;;4992620;28;20199;-82
2022/04/12 10:11:35;;;;;;;4.50;1.85;;;;;;;;;;4992116;28;20258;-83
2022/04/12 10:14:03;;;;;;;2.25;2.05;;;;;;;;;;4992716;28;20235;-83
2022/04/12 10:16:30;;;;;;;2.75;2.03;;;;;;;;;;4992261;28;20235;-82
2022/04/12 10:19:01;;;;;;;2.55;2.35;;;;;;;;;;4993015;28;20747;-84
2022/04/12 10:21:28;;;;;;;2.67;1.70;;;;;;;;;;4992663;28;20231;-82
2022/04/12 10:23:57;;;;;;;2.20;2.00;;;;;;;;;;4992870;28;20235;-82
2022/04/12 10:26:25;;;;;;;3.13;2.13;;;;;;;;;;4992665;28;20258;-81
2022/04/12 10:28:52;;;;;;;5.53;1.75;;;;;;;;;;4992951;28;20216;-82
2022/04/12 10:31:22;;;;;;;3.72;1.95;;;;;;;;;;4991537;28;20264;-83
2022/04/12 10:33:53;;;;;;;4.25;1.85;;;;;;;;;;4992138;28;20232;-82
2022/04/12 10:36:20;;;;;;;4.38;1.90;;;;;;;;;;4991462;28;20247;-82
2022/04/12 10:38:47;;;;;;;2.83;2.15;;;;;;;;;;4992043;28;20211;-83
2022/04/12 10:41:15;;;;;;;2.72;1.88;;;;;;;;;;4991515;28;20231;-82
2022/04/12 10:43:43;;;;;;;1.73;1.58;;;;;;;;;;5009793;28;20231;-84
2022/04/12 10:46:12;;;;;;;2.15;1.70;;;;;;;;;;5010850;28;20783;-83
2022/04/12 10:48:41;;;;;;;2.65;1.50;;;;;;;;;;5013174;28;20211;-83
2022/04/12 10:51:08;;;;;;;3.17;1.80;;;;;;;;;;5030820;28;20231;-83
2022/04/12 10:53:55;;;;;;;3.72;1.85;;;;;;;;;;5030763;28;20722;-83
2022/04/12 10:56:24;;;;;;;2.60;1.60;;;;;;;;;;5030320;28;20269;-82
2022/04/12 10:58:51;;;;;;;1.45;1.35;;;;;;;;;;5025618;28;20212;-83
2022/04/12 11:01:29;;;;;;;2.20;1.80;;;;;;;;;;5010196;28;20238;-83
2022/04/12 11:03:58;;;;;;;2.25;1.75;;;;;;;;;;5011203;28;20769;-83
2022/04/12 11:06:26;;;;;;;1.35;1.25;;;;;;;;;;5010546;28;20249;-83
2022/04/12 11:08:53;;;;;;;4.88;1.55;;;;;;;;;;5003201;28;20219;-83
2022/04/12 11:11:22;;;;;;;2.67;1.83;;;;;;;;;;4991128;28;20242;-83
2022/04/12 11:13:50;;;;;;;1.55;1.45;;;;;;;;;;4992951;28;20224;-83
2022/04/12 11:16:19;;;;;;;1.92;1.67;;;;;;;;;;4994520;28;20240;-83
2022/04/12 11:18:47;;;;;;;3.13;2.00;;;;;;;;;;4996044;28;20215;-84
2022/04/12 11:21:15;;;;;;;3.53;1.50;;;;;;;;;;4995262;28;20300;-83
2022/04/12 11:23:46;;;;;;;2.65;1.60;;;;;;;;;;4998808;28;20239;-83
2022/04/12 11:26:27;;;;;;;1.77;1.60;;;;;;;;;;4994795;28;20240;-83
2022/04/12 11:28:56;;;;;;;2.47;1.50;;;;;;;;;;4995179;28;20266;-82
2022/04/12 11:31:23;;;;;;;4.47;2.00;;;;;;;;;;4994631;28;20274;-83
2022/04/12 11:33:50;;;;;;;1.98;1.80;;;;;;;;;;4995406;28;20232;-82
2022/04/12 11:36:20;;;;;;;1.70;1.60;;;;;;;;;;4994502;28;20247;-83
2022/04/12 11:38:48;;;;;;;1.58;1.48;;;;;;;;;;4994807;28;20703;-83
2022/04/12 11:41:16;;;;;;;3.13;1.52;;;;;;;;;;4994806;28;20244;-83
2022/04/12 11:43:43;;;;;;;2.03;1.48;;;;;;;;;;5014742;28;20572;-82
2022/04/12 11:46:17;;;;;;;1.70;1.60;;;;;;;;;;5015421;28;20239;-83
2022/04/12 11:48:44;;;;;;;3.53;1.63;;;;;;;;;;5014035;28;20203;-83
2022/04/12 11:51:12;;;;;;;2.05;1.85;;;;;;;;;;5013942;28;20259;-83
2022/04/12 11:53:49;;;;;;;1.95;1.75;;;;;;;;;;5014213;28;20238;-83
2022/04/12 11:56:16;;;;;;;2.95;1.63;;;;;;;;;;5012257;28;20257;-83
2022/04/12 11:58:46;;;;;;;5.30;1.77;;;;;;;;;;5020774;28;20199;-83
2022/04/12 12:01:13;;;;;;;2.03;1.77;;;;;;;;;;5014188;28;20262;-83
2022/04/12 12:03:42;;;;;;;1.63;1.50;;;;;;;;;;5013803;28;20235;-83
2022/04/12 12:06:09;;;;;;;1.50;1.40;;;;;;;;;;5013394;28;20254;-83
2022/04/12 12:08:37;;;;;;;2.17;1.75;;;;;;;;;;5013592;28;20218;-82
2022/04/12 12:11:12;;;;;;;3.47;1.90;;;;;;;;;;5015702;28;20234;-83
2022/04/12 12:13:39;;;;;;;3.90;2.17;;;;;;;;;;5031160;28;20225;-82
2022/04/12 12:16:15;;;;;;;1.63;1.40;;;;;;;;;;5033407;28;20234;-84
2022/04/12 12:18:42;;;;;;;2.50;1.67;;;;;;;;;;5033928;28;20222;-84
2022/04/12 12:21:09;;;;;;;1.70;1.33;;;;;;;;;;5033625;28;20231;-82
2022/04/12 12:23:36;;;;;;;2.97;1.40;;;;;;;;;;5011562;28;20231;-85
2022/04/12 12:26:03;;;;;;;2.50;1.45;;;;;;;;;;5011901;28;20262;-85
2022/04/12 12:28:32;;;;;;;3.20;1.30;;;;;;;;;;5006236;28;20235;-86
2022/04/12 12:31:00;;;;;;;1.52;1.42;;;;;;;;;;4993848;28;20258;-85
2022/04/12 12:33:36;;;;;;;1.50;1.40;;;;;;;;;;4993842;28;20228;-83
2022/04/12 12:36:03;;;;;;;1.88;1.40;;;;;;;;;;5007002;28;20247;-85
2022/04/12 12:38:30;;;;;;;2.97;1.60;;;;;;;;;;5011263;28;20208;-85
2022/04/12 12:40:58;;;;;;;2.40;1.80;;;;;;;;;;5018886;28;20776;-86
2022/04/12 12:43:27;;;;;;;1.77;1.50;;;;;;;;;;5017886;28;20509;-86
2022/04/12 12:45:55;;;;;;;1.65;1.40;;;;;;;;;;5015976;28;20234;-85
2022/04/12 12:48:23;;;;;;;2.20;1.60;;;;;;;;;;5014212;28;20196;-85
2022/04/12 12:50:51;;;;;;;9.07;2.10;;;;;;;;;;5013853;28;20289;-85
2022/04/12 12:53:24;;;;;;;2.92;1.70;;;;;;;;;;5012823;28;20216;-85
2022/04/12 12:55:51;;;;;;;3.88;1.65;;;;;;;;;;5013048;28;20246;-85
2022/04/12 12:58:18;;;;;;;2.75;1.95;;;;;;;;;;5013224;28;20204;-85
2022/04/12 13:00:45;;;;;;;1.80;1.70;;;;;;;;;;5013114;28;20256;-85
2022/04/12 13:03:15;;;;;;;2.33;1.85;;;;;;;;;;5012965;28;20227;-85
2022/04/12 13:05:43;;;;;;;2.08;1.73;;;;;;;;;;5012356;28;20611;-85
2022/04/12 13:08:10;;;;;;;4.32;2.10;;;;;;;;;;5013054;28;20747;-84
2022/04/12 13:10:38;;;;;;;3.40;2.17;;;;;;;;;;5012807;28;20598;-84
2022/04/12 13:13:06;;;;;;;5.45;2.85;;;;;;;;;;5013252;28;20246;-84
2022/04/12 13:15:33;;;;;;;5.05;2.20;;;;;;;;;;5012461;28;20297;-84
2022/04/12 13:18:01;;;;;;;3.15;2.50;;;;;;;;;;5012955;28;20707;-84
2022/04/12 13:20:29;;;;;;;5.38;2.28;;;;;;;;;;5012807;28;20227;-84
2022/04/12 13:22:56;;;;;;;4.45;2.30;;;;;;;;;;5012913;28;20238;-84
2022/04/12 13:25:23;;;;;;;14.43;3.05;;;;;;;;;;5028742;28;20712;-83
2022/04/12 13:27:51;;;;;;;11.45;3.33;;;;;;;;;;5031796;28;20218;-85
2022/04/12 13:30:18;;;;;;;4.63;2.35;;;;;;;;;;5020818;28;20231;-81
2022/04/12 13:32:45;;;;;;;4.53;2.95;;;;;;;;;;5030236;28;20226;-83
2022/04/12 13:35:13;;;;;;;2.85;2.50;;;;;;;;;;5034261;28;20241;-81
2022/04/12 13:37:41;;;;;;;3.67;2.17;;;;;;;;;;5036652;28;20211;-81
2022/04/12 13:40:09;;;;;;;9.60;2.67;;;;;;;;;;5035860;28;20426;-83
2022/04/12 13:42:37;;;;;;;3.47;2.45;;;;;;;;;;5025696;28;20211;-79
2022/04/12 13:45:04;;;;;;;3.65;2.67;;;;;;;;;;5010279;28;20752;-81
2022/04/12 13:47:31;;;;;;;6.60;3.10;;;;;;;;;;5015636;28;20591;-81
2022/04/12 13:49:58;;;;;;;3.33;3.00;;;;;;;;;;5016927;28;20235;-81
2022/04/12 13:52:25;;;;;;;6.95;3.50;;;;;;;;;;5019288;28;20211;-82
2022/04/12 13:54:54;;;;;;;3.40;2.90;;;;;;;;;;5017747;28;20243;-81
2022/04/12 13:57:21;;;;;;;2.67;2.40;;;;;;;;;;5018628;28;20211;-82
2022/04/12 13:59:48;;;;;;;6.53;2.72;;;;;;;;;;5017356;28;20199;-83
2022/04/12 14:02:15;;;;;;;11.05;3.50;;;;;;;;;;5019990;28;20211;-82
2022/04/12 14:04:42;;;;;;;3.20;2.25;;;;;;;;;;5017989;28;20278;-82
2022/04/12 14:07:10;;;;;;;5.60;3.15;;;;;;;;;;5017409;28;20223;-83
2022/04/12 14:09:38;;;;;;;5.22;2.85;;;;;;;;;;5013615;28;20211;-83
2022/04/12 14:12:06;;;;;;;4.32;2.65;;;;;;;;;;5016574;28;20218;-82
2022/04/12 14:14:33;;;;;;;5.28;3.08;;;;;;;;;;5016611;28;20281;-82
2022/04/12 14:17:00;;;;;;;5.03;2.85;;;;;;;;;;5017598;28;20207;-83
2022/04/12 14:19:27;;;;;;;7.80;3.00;;;;;;;;;;5016713;28;20203;-82
2022/04/12 14:21:54;;;;;;;5.20;2.95;;;;;;;;;;5015932;28;20887;-82
2022/04/12 14:24:22;;;;;;;11.90;3.92;;;;;;;;;;5013557;28;20238;-83
2022/04/12 14:26:49;;;;;;;4.20;2.75;;;;;;;;;;5014235;28;20243;-83
2022/04/12 14:29:17;;;;;;;6.72;3.17;;;;;;;;;;5014436;28;20207;-82
2022/04/12 14:31:45;;;;;;;3.55;3.10;;;;;;;;;;5014074;28;20235;-81
2022/04/12 14:34:12;;;;;;;3.28;2.92;;;;;;;;;;5016700;28;20231;-83
2022/04/12 14:36:40;;;;;;;8.55;3.58;;;;;;;;;;5016964;28;20235;-83
2022/04/12 14:39:07;;;;;;;3.10;2.60;;;;;;;;;;5004614;28;20200;-82
2022/04/12 14:41:35;;;;;;;3.75;2.70;;;;;;;;;;4995350;28;20270;-82
2022/04/12 14:44:03;;;;;;;8.27;2.30;;;;;;;;;;4995696;28;20334;-81
2022/04/12 14:46:32;;;;;;;4.80;2.80;;;;;;;;;;4994419;28;20954;-80